Aérodrome :
LOGIN :

S'inscrire | Disclaimer

   EN    FR    IT 

 










Légende :    VFR   VFR Marginal   IFR   IFR Intensif   IFR Très Intensif
Visi : 
Plafond : 
>= 8 km
>= 3000ft
5 à 8 km
1000 à 3000 ft
1500m à 5 km
500 à 1000 ft
800 à 1500m
200 à 500 ft
< 800m
< 200 ft
Symboles :   Orages  Brouillard  Fortes neiges  Fortes précipitations  Vent > 20 kt
SIGMETs :   Divers  Orages  Givrage  Turbulence  Onde Orograph.  Cendres Volcan.







- Altitude de l'aérodrome : 13 ft
- Code IATA : OST


EBOS - Oostend bruges Int.

DERNIER METAR :
  • 240420Z 26010KT CAVOK 16/13 Q1016 NOSIG

METARs EXPIRÉS :
  • 240350Z 26012KT CAVOK 16/13 Q1016 NOSIG
  • 240320Z 27013KT CAVOK 17/13 Q1016 NOSIG
  • 240250Z 26012KT CAVOK 17/14 Q1016 NOSIG
  • 240220Z 24006KT 9999 FEW014 15/13 Q1015 NOSIG
  • 240150Z 22007KT 9999 SCT014 15/13 Q1015 TEMPO BKN014

TAF TAF EBOS
Valide du 24 à 00h jusqu'au 25 à 06h UTC


232315Z 2400/2506 26010KT 9999 FEW025
PROB30
TEMPO 2403/2406 BKN008
Pas de NOTAMs connus pour ce terrain.



MET'MAP, la Météo Aéronautique d'un coup d'oeil ! - Copyright ORBIFLY Décembre 2007 - Disclaimer

ORBIFLY MET'MAP TEAM :

Programmation & Développement : Alexandra Zaïnal
Conception & Développement : Baudouin d'Aumeries
Co-Programmation & Développement : Marc-Olivier Méhu
Soutien technique & logistique : Manuel Goepfert

Contact : metmap@orbifly.com




SOURCES & CREDITS :

   NOAA